Terminal Aerodrome Forecast
Issued by NWS Missoula, MT

Home | Current Version | Previous Version | Text Only | Print | Product List | Glossary On
Versions: 1 2 3 4 5 6 7 8 9 10 11 12 13 14 15 16
000
FTUS45 KMSO 300522
TAFMSO
TAF
KMSO 300522Z 3006/0106 24005KT P6SM -RA FEW030 OVC045
     FM300700 28005KT P6SM VCSH BKN050
     FM301600 28008KT P6SM BKN080
     FM302300 28012KT P6SM VCSH BKN040 OVC080=

USA.gov is the U.S. government's official web portal to all federal, state and local government web resources and services.